Time;durP1;ratioP1;P1;durP2;ratioP2;P2;SDS_P1;SDS_P2;PMS_P1;PMS_P2;Temp;Humidity;BMP_temperature;BMP_pressure;BME280_temperature;BME280_humidity;BME280_pressure;Samples;Min_cycle;Max_cycle;Signal;HPM_P1;HPM_P2
2022/05/10 00:02:16;114654.00;0.38;198.86;0.00;0.00;0.62;;;;;19.00;1.00;;;;;;2264571;61;1374;-84
2022/05/10 00:04:52;6968.00;0.02;12.70;0.00;0.00;0.62;;;;;19.00;1.00;;;;;;2264529;61;1924;-85
2022/05/10 00:07:21;23225.00;0.08;40.85;0.00;0.00;0.62;;;;;18.90;1.00;;;;;;2264652;61;1187;-84
2022/05/10 00:09:48;525845.00;1.75;906.33;8076.00;0.03;14.62;;;;;18.90;1.00;;;;;;2264334;61;1644;-86
2022/05/10 00:12:15;1635704.00;5.45;2901.17;110613.00;0.37;191.89;;;;;18.60;1.00;;;;;;2264647;61;1429;-85
2022/05/10 00:14:43;916630.00;3.06;1585.35;143960.00;0.48;249.40;;;;;18.60;1.00;;;;;;2264168;61;1083;-83
2022/05/10 00:17:18;367340.00;1.22;633.66;91667.00;0.31;159.19;;;;;18.40;1.00;;;;;;2264515;61;1044;-83
2022/05/10 00:19:46;41290.00;0.14;72.12;0.00;0.00;0.62;;;;;18.30;1.00;;;;;;2264579;61;1061;-83
2022/05/10 00:22:13;0.00;0.00;0.62;0.00;0.00;0.62;;;;;17.90;1.00;;;;;;2264391;61;1423;-83
2022/05/10 00:24:40;234961.00;0.78;406.08;19572.00;0.07;34.53;;;;;17.80;1.00;;;;;;2264330;61;1998;-83
2022/05/10 00:27:07;113918.00;0.38;197.59;0.00;0.00;0.62;;;;;17.70;1.00;;;;;;2264635;61;1183;-85
2022/05/10 00:29:34;655795.00;2.19;1130.66;13510.00;0.05;24.03;;;;;17.90;1.00;;;;;;2264580;61;1154;-85
2022/05/10 00:32:01;493.00;0.00;1.47;0.00;0.00;0.62;;;;;17.80;1.00;;;;;;2264513;61;1363;-83
2022/05/10 00:34:30;14024.00;0.05;24.92;0.00;0.00;0.62;;;;;17.80;1.00;;;;;;2264487;61;1098;-84
2022/05/10 00:36:58;183546.00;0.61;317.60;31871.00;0.11;55.82;;;;;18.00;1.00;;;;;;2264390;61;1094;-82
2022/05/10 00:39:25;195606.00;0.65;338.36;0.00;0.00;0.62;;;;;18.30;1.00;;;;;;2264482;61;1072;-84
2022/05/10 00:41:59;802583.00;2.68;1385.63;47220.00;0.16;82.38;;;;;18.30;1.00;;;;;;2264258;61;1285;-83
2022/05/10 00:44:34;1202812.00;4.01;2095.30;122038.00;0.41;211.60;;;;;18.20;1.00;;;;;;2264392;61;1919;-83
2022/05/10 00:47:09;526717.00;1.76;907.84;96107.00;0.32;166.85;;;;;18.20;1.00;;;;;;2264066;61;1338;-86
2022/05/10 00:49:43;125965928.00;419.89;80979080.00;78386.00;0.26;136.25;;;;;18.40;1.00;;;;;;2264389;61;1072;-86
2022/05/10 00:52:17;1537436.00;5.12;2713.76;111124.00;0.37;192.77;;;;;18.50;1.00;;;;;;2264445;61;1515;-83
2022/05/10 00:54:53;215332.00;0.72;372.31;87972.00;0.29;152.81;;;;;18.30;1.00;;;;;;2264150;61;1053;-82
2022/05/10 00:57:31;42908.00;0.14;74.92;0.00;0.00;0.62;;;;;18.40;1.00;;;;;;2264022;61;1133;-83
2022/05/10 01:00:06;66145.00;0.22;115.10;0.00;0.00;0.62;;;;;18.30;1.00;;;;;;2264322;61;1016;-84
2022/05/10 01:02:43;3484.00;0.01;6.66;0.00;0.00;0.62;;;;;18.20;1.00;;;;;;2264457;61;1436;-87
2022/05/10 01:05:19;508771.00;1.70;876.93;0.00;0.00;0.62;;;;;18.20;1.00;;;;;;2264501;61;1982;-84
2022/05/10 01:07:55;1113240.00;3.71;1934.12;187479.00;0.62;324.37;;;;;18.40;1.00;;;;;;2264363;61;1213;-84
2022/05/10 01:10:35;216094.00;0.72;373.62;82929.00;0.28;144.10;;;;;18.40;1.00;;;;;;2263976;61;1075;-84
2022/05/10 01:13:15;67940.00;0.23;118.20;0.00;0.00;0.62;;;;;18.20;1.00;;;;;;2263822;61;1934;-84
2022/05/10 01:15:56;36393.00;0.12;63.65;0.00;0.00;0.62;;;;;18.20;1.00;;;;;;2264385;61;1093;-83
2022/05/10 01:18:24;104159.00;0.35;180.75;14140.00;0.05;25.12;;;;;18.40;1.00;;;;;;2264398;61;1609;-83
2022/05/10 01:20:56;713540.00;2.38;1230.73;45779.00;0.15;79.89;;;;;18.20;1.00;;;;;;2264239;61;1420;-84
2022/05/10 01:23:59;524387.00;1.75;903.82;81894.00;0.27;142.31;;;;;18.20;1.00;;;;;;2263731;61;1530;-85
2022/05/10 01:26:39;59159.00;0.20;103.02;0.00;0.00;0.62;;;;;18.10;1.00;;;;;;2264289;61;1106;-85
2022/05/10 01:29:13;0.00;0.00;0.62;0.00;0.00;0.62;;;;;18.10;1.00;;;;;;2264120;61;1159;-83
2022/05/10 01:31:47;46412.00;0.15;80.98;0.00;0.00;0.62;;;;;18.10;1.00;;;;;;2264298;61;1392;-85
2022/05/10 01:34:19;83366.00;0.28;144.85;0.00;0.00;0.62;;;;;18.20;1.00;;;;;;2264433;61;1069;-84
2022/05/10 01:36:53;1608429.00;5.36;2848.86;70965.00;0.24;123.43;;;;;18.50;1.00;;;;;;2264084;61;2143;-84
2022/05/10 01:39:26;1385420.00;4.62;2429.31;98623.00;0.33;171.19;;;;;17.90;1.00;;;;;;2264293;61;1138;-85
2022/05/10 01:42:04;1235135.00;4.12;2153.87;101548.00;0.34;176.24;;;;;17.70;1.00;;;;;;2264132;61;1467;-83
2022/05/10 01:44:40;671950.00;2.24;1158.63;109696.00;0.37;190.31;;;;;17.60;1.00;;;;;;2264345;61;2010;-84
2022/05/10 01:47:14;214073.00;0.71;370.14;82283.00;0.27;142.98;;;;;17.20;1.00;;;;;;2263842;61;1160;-86
2022/05/10 01:49:47;90765.00;0.30;157.63;0.00;0.00;0.62;;;;;17.10;1.00;;;;;;2264165;61;1176;-85
2022/05/10 01:52:20;171580.00;0.57;296.99;0.00;0.00;0.62;;;;;17.30;1.00;;;;;;2264237;61;1372;-83
2022/05/10 01:55:19;17647.00;0.06;31.20;0.00;0.00;0.62;;;;;17.40;1.00;;;;;;2264239;61;1134;-81
2022/05/10 01:57:47;168188.00;0.56;291.15;0.00;0.00;0.62;;;;;17.40;1.00;;;;;;2264386;61;1523;-85
2022/05/10 02:00:21;822814.00;2.74;1420.94;32739.00;0.11;57.32;;;;;16.90;1.00;;;;;;2264243;61;1168;-83
2022/05/10 02:02:54;460639.00;1.54;794.08;102123.00;0.34;177.24;;;;;17.00;1.00;;;;;;2264046;61;1464;-84
2022/05/10 02:05:28;168423.00;0.56;291.55;81225.00;0.27;141.15;;;;;17.20;1.00;;;;;;2263782;61;1993;-83
2022/05/10 02:08:02;0.00;0.00;0.62;0.00;0.00;0.62;;;;;17.30;1.00;;;;;;2264078;61;1130;-83
2022/05/10 02:10:36;0.00;0.00;0.62;0.00;0.00;0.62;;;;;17.50;1.00;;;;;;2264124;61;1105;-82
2022/05/10 02:13:10;338709.00;1.13;584.45;0.00;0.00;0.62;;;;;17.60;1.00;;;;;;2264180;61;1485;-87
2022/05/10 02:15:45;1387455.00;4.62;2433.08;122835.00;0.41;212.97;;;;;17.60;1.00;;;;;;2264458;61;1107;-86
2022/05/10 02:18:19;503809.00;1.68;868.38;69040.00;0.23;120.10;;;;;17.60;1.00;;;;;;2264154;61;1012;-84
2022/05/10 02:20:52;0.00;0.00;0.62;0.00;0.00;0.62;;;;;17.50;1.00;;;;;;2264083;61;1475;-83
2022/05/10 02:23:24;236733.00;0.79;409.13;28746.00;0.10;50.41;;;;;17.50;1.00;;;;;;2264177;61;1125;-85
2022/05/10 02:26:09;6306.00;0.02;11.55;0.00;0.00;0.62;;;;;17.60;1.00;;;;;;2264020;61;2197;-83
2022/05/10 02:28:42;0.00;0.00;0.62;0.00;0.00;0.62;;;;;17.80;1.00;;;;;;2264266;61;1128;-84
2022/05/10 02:31:17;285953.00;0.95;493.77;0.00;0.00;0.62;;;;;17.80;1.00;;;;;;2264296;61;1298;-85
2022/05/10 02:33:45;982296.00;3.27;1701.14;46749.00;0.16;81.56;;;;;17.70;1.00;;;;;;2264243;61;1145;-85
2022/05/10 02:36:12;496846.00;1.66;856.39;81025.00;0.27;140.81;;;;;17.50;1.00;;;;;;2263869;61;1130;-85
2022/05/10 02:38:41;100321.00;0.33;174.13;0.00;0.00;0.62;;;;;17.30;1.00;;;;;;2264195;61;1115;-84
2022/05/10 02:41:13;0.00;0.00;0.62;0.00;0.00;0.62;;;;;17.60;1.00;;;;;;2264089;61;1282;-82
2022/05/10 02:43:46;928698.00;3.10;1606.58;52502.00;0.18;91.51;;;;;17.60;1.00;;;;;;2264258;61;1174;-83
2022/05/10 02:46:16;1813865.00;6.05;3248.87;150114.00;0.50;260.00;;;;;17.70;1.00;;;;;;2264139;61;1985;-83
2022/05/10 02:48:43;1191392.00;3.97;2074.66;136313.00;0.45;236.21;;;;;17.70;1.00;;;;;;2264100;61;1104;-85
2022/05/10 02:51:10;195212.00;0.65;337.68;83676.00;0.28;145.39;;;;;17.70;1.00;;;;;;2263972;61;1301;-85
2022/05/10 02:53:37;18467.00;0.06;32.62;0.00;0.00;0.62;;;;;17.80;1.00;;;;;;2263779;61;1123;-85
2022/05/10 02:56:06;90281.00;0.30;156.79;0.00;0.00;0.62;;;;;17.70;1.00;;;;;;2264242;61;1391;-85
2022/05/10 02:58:40;259250.00;0.86;447.86;34107.00;0.11;59.69;;;;;17.30;1.00;;;;;;2264120;61;1063;-84
2022/05/10 03:01:15;26996.00;0.09;47.38;0.00;0.00;0.62;;;;;17.50;1.00;;;;;;2263915;61;1364;-83
2022/05/10 03:03:44;20397.00;0.07;35.96;0.00;0.00;0.62;;;;;17.50;1.00;;;;;;2264013;61;1171;-81
2022/05/10 03:06:14;2636.00;0.01;5.19;0.00;0.00;0.62;;;;;17.60;1.00;;;;;;2264090;61;2006;-81
2022/05/10 03:08:41;735917.00;2.45;1269.58;35435.00;0.12;61.99;;;;;17.60;1.00;;;;;;2264159;61;1195;-84
2022/05/10 03:11:08;1054705.00;3.52;1829.61;62875.00;0.21;109.45;;;;;17.50;1.00;;;;;;2263864;61;1464;-83
2022/05/10 03:13:35;1500508.00;5.00;2644.08;102800.00;0.34;178.40;;;;;17.60;1.00;;;;;;2264061;61;1033;-84
2022/05/10 03:16:02;628532.00;2.10;1083.51;86164.00;0.29;149.68;;;;;17.70;1.00;;;;;;2263952;61;1066;-87
2022/05/10 03:18:29;71920.00;0.24;125.08;0.00;0.00;0.62;;;;;17.60;1.00;;;;;;2263890;61;1154;-84
2022/05/10 03:20:57;0.00;0.00;0.62;0.00;0.00;0.62;;;;;17.40;1.00;;;;;;2263912;61;1383;-84
2022/05/10 03:23:24;153906.00;0.51;266.54;0.00;0.00;0.62;;;;;17.10;1.00;;;;;;2263953;61;1077;-84
2022/05/10 03:25:51;21231.00;0.07;37.40;0.00;0.00;0.62;;;;;16.70;1.00;;;;;;2264534;61;1992;-86
2022/05/10 03:28:18;119760.00;0.40;207.67;0.00;0.00;0.62;;;;;16.70;1.00;;;;;;2264608;61;1112;-83
2022/05/10 03:30:45;301812.00;1.01;521.03;35804.00;0.12;62.63;;;;;16.70;1.00;;;;;;2264751;61;1380;-83
2022/05/10 03:33:12;729706.00;2.43;1258.79;77036.00;0.26;133.92;;;;;16.50;1.00;;;;;;2264636;61;1084;-84
2022/05/10 03:35:39;222536.00;0.74;384.71;88903.00;0.30;154.41;;;;;16.10;1.00;;;;;;2264570;61;1107;-85
2022/05/10 03:38:07;441113.00;1.47;760.50;73367.00;0.24;127.58;;;;;16.10;1.00;;;;;;2264716;61;1096;-85
2022/05/10 03:40:34;66946.00;0.22;116.48;0.00;0.00;0.62;;;;;15.70;1.00;;;;;;2264509;61;1150;-83
2022/05/10 03:43:01;66967.00;0.22;116.52;0.00;0.00;0.62;;;;;15.50;1.00;;;;;;2264487;61;1346;-86
2022/05/10 03:45:29;580816.00;1.94;1001.11;33796.00;0.11;59.15;;;;;15.60;1.00;;;;;;2264756;61;2005;-85
2022/05/10 03:47:56;1074273.00;3.58;1864.48;38489.00;0.13;67.27;;;;;15.70;1.00;;;;;;2264781;61;1040;-84
2022/05/10 03:50:25;290776.00;0.97;502.06;88858.00;0.30;154.34;;;;;15.90;1.00;;;;;;2264743;61;1509;-85
2022/05/10 03:52:53;285456.00;0.95;492.92;80779.00;0.27;140.38;;;;;16.10;1.00;;;;;;2264540;61;1319;-85
2022/05/10 03:55:24;19365.00;0.06;34.17;0.00;0.00;0.62;;;;;16.50;1.00;;;;;;2264415;61;1116;-85
2022/05/10 03:57:51;133892.00;0.45;232.04;14747.00;0.05;26.17;;;;;16.50;1.00;;;;;;2264359;61;1390;-85
2022/05/10 04:00:23;162442.00;0.54;281.25;0.00;0.00;0.62;;;;;16.50;1.00;;;;;;2264608;61;1172;-83
2022/05/10 04:02:50;410550.00;1.37;707.94;0.00;0.00;0.62;;;;;16.50;1.00;;;;;;2264617;61;1718;-85
2022/05/10 04:05:19;748488.00;2.49;1291.43;47717.00;0.16;83.24;;;;;17.00;1.00;;;;;;2263862;61;1992;-86
2022/05/10 04:07:47;49459.00;0.16;86.25;0.00;0.00;0.62;;;;;17.00;1.00;;;;;;2264306;61;1962;-85
2022/05/10 04:10:16;0.00;0.00;0.62;0.00;0.00;0.62;;;;;17.20;1.00;;;;;;2264636;61;1143;-83
2022/05/10 04:12:44;107100.00;0.36;185.83;0.00;0.00;0.62;;;;;17.40;1.00;;;;;;2264283;61;1321;-83
2022/05/10 04:15:14;0.00;0.00;0.62;0.00;0.00;0.62;;;;;16.80;1.00;;;;;;2264246;61;1127;-82
2022/05/10 04:17:42;0.00;0.00;0.62;0.00;0.00;0.62;;;;;16.70;1.00;;;;;;2275592;41;3583;-83
2022/05/10 04:20:11;663039.00;2.21;1143.20;0.00;0.00;0.62;;;;;17.00;1.00;;;;;;2260398;61;1443;-84
2022/05/10 04:22:38;878122.00;2.93;1517.73;150464.00;0.50;260.61;;;;;17.00;1.00;;;;;;2259806;61;1407;-83
2022/05/10 04:25:06;117395848.00;391.32;65537032.00;0.00;0.00;0.62;;;;;17.10;1.00;;;;;;2260119;61;1997;-85
2022/05/10 04:27:34;40077.00;0.13;70.02;0.00;0.00;0.62;;;;;16.90;1.00;;;;;;2260407;61;1453;-86
2022/05/10 04:30:02;62630.00;0.21;109.02;0.00;0.00;0.62;;;;;16.90;1.00;;;;;;2260365;61;1971;-86
2022/05/10 04:32:29;54797.00;0.18;95.48;0.00;0.00;0.62;;;;;17.00;1.00;;;;;;2260263;61;1371;-81
2022/05/10 04:34:56;486137.00;1.62;837.96;51715.00;0.17;90.15;;;;;16.60;1.00;;;;;;2260360;61;948;-84
2022/05/10 04:37:22;526724.00;1.76;907.85;14204.00;0.05;25.23;;;;;16.40;1.00;;;;;;2260013;61;1765;-82
2022/05/10 04:42:34;86468.00;0.29;150.21;0.00;0.00;0.62;;;;;16.80;1.00;;;;;;2260336;61;1302;-87
2022/05/10 04:45:02;40542.00;0.14;70.83;0.00;0.00;0.62;;;;;16.50;1.00;;;;;;2260080;61;1916;-83
2022/05/10 04:47:29;103527.00;0.35;179.66;0.00;0.00;0.62;;;;;16.50;1.00;;;;;;2260401;61;1148;-80
2022/05/10 04:49:56;1331484.00;4.44;2329.84;55407.00;0.18;96.54;;;;;16.60;1.00;;;;;;2259687;61;1093;-82
2022/05/10 04:52:23;1360254.00;4.53;2382.81;88331.00;0.29;153.43;;;;;16.60;1.00;;;;;;2260008;61;1372;-81
2022/05/10 04:54:49;893624.00;2.98;1544.92;126234.00;0.42;218.83;;;;;16.60;1.00;;;;;;2259962;61;1081;-82
2022/05/10 04:57:16;282221.00;0.94;487.36;82307.00;0.27;143.02;;;;;16.90;1.00;;;;;;2259609;61;1785;-83
2022/05/10 04:59:43;373002.00;1.24;643.40;91067.00;0.30;158.15;;;;;17.00;1.00;;;;;;2259895;61;1153;-83
2022/05/10 05:02:13;0.00;0.00;0.62;0.00;0.00;0.62;;;;;16.80;1.00;;;;;;2259847;61;1389;-84
2022/05/10 05:04:40;0.00;0.00;0.62;0.00;0.00;0.62;;;;;17.00;1.00;;;;;;2260092;61;1134;-82
2022/05/10 05:07:09;166721.00;0.56;288.62;19081.00;0.06;33.68;;;;;17.00;1.00;;;;;;2259938;61;2011;-80
2022/05/10 05:09:36;154427.00;0.51;267.44;0.00;0.00;0.62;;;;;17.00;1.00;;;;;;2260018;61;1108;-83
2022/05/10 05:12:04;952904.00;3.18;1649.23;78458.00;0.26;136.37;;;;;17.50;1.00;;;;;;2259848;61;1275;-84
2022/05/10 05:14:31;173245.00;0.58;299.86;84519.00;0.28;146.84;;;;;17.90;1.00;;;;;;2259960;61;1168;-86
2022/05/10 05:16:59;908350.00;3.03;1570.79;35897.00;0.12;62.79;;;;;18.20;1.00;;;;;;2260098;61;1936;-84
2022/05/10 05:19:27;0.00;0.00;0.62;0.00;0.00;0.62;;;;;18.40;1.00;;;;;;2259821;61;1209;-81
2022/05/10 05:21:54;37288.00;0.12;65.20;0.00;0.00;0.62;;;;;18.40;1.00;;;;;;2259478;61;1267;-81
2022/05/10 05:24:21;205345.00;0.68;355.12;0.00;0.00;0.62;;;;;18.50;1.00;;;;;;2259671;61;1071;-83
2022/05/10 05:26:48;502295.00;1.67;865.78;0.00;0.00;0.62;;;;;18.30;1.00;;;;;;2259010;61;1928;-81
2022/05/10 05:29:15;16202.00;0.05;28.69;0.00;0.00;0.62;;;;;18.60;1.00;;;;;;2259488;61;1366;-83
2022/05/10 05:31:42;22579.00;0.08;39.74;0.00;0.00;0.62;;;;;18.60;1.00;;;;;;2259562;61;1676;-83
2022/05/10 05:34:09;120679.00;0.40;209.25;0.00;0.00;0.62;;;;;19.40;1.00;;;;;;2259447;61;1163;-83
2022/05/10 05:36:37;49368.00;0.16;86.09;0.00;0.00;0.62;;;;;20.70;1.00;;;;;;2259459;61;1120;-85
2022/05/10 05:39:04;48878.00;0.16;85.25;0.00;0.00;0.62;;;;;22.20;1.00;;;;;;2259790;61;1748;-83
2022/05/10 05:41:31;905111.00;3.02;1565.10;31648.00;0.11;55.44;;;;;23.40;1.00;;;;;;2259132;61;1381;-83
2022/05/10 05:43:58;199202.00;0.66;344.55;73075.00;0.24;127.07;;;;;24.40;1.00;;;;;;2258993;61;1069;-81
2022/05/10 05:46:25;68858.00;0.23;119.79;0.00;0.00;0.62;;;;;25.70;1.00;;;;;;2259264;61;1947;-83
2022/05/10 05:48:52;129337.00;0.43;224.19;0.00;0.00;0.62;;;;;26.40;1.00;;;;;;2259948;61;1172;-83
2022/05/10 05:51:18;567306.00;1.89;977.80;0.00;0.00;0.62;;;;;27.10;1.00;;;;;;2259511;61;1430;-83
2022/05/10 05:53:47;355573.00;1.19;613.44;89092.00;0.30;154.74;;;;;27.70;1.00;;;;;;2259620;61;1137;-83
2022/05/10 05:56:14;56051.00;0.19;97.65;0.00;0.00;0.62;;;;;28.20;1.00;;;;;;2260234;61;1164;-86
2022/05/10 05:58:41;143837.00;0.48;249.19;0.00;0.00;0.62;;;;;28.70;1.00;;;;;;2260159;61;1803;-85
2022/05/10 06:01:13;5717.00;0.02;10.53;0.00;0.00;0.62;;;;;28.40;1.00;;;;;;2260207;61;1309;-85
2022/05/10 06:03:42;41941.00;0.14;73.25;0.00;0.00;0.62;;;;;28.70;1.00;;;;;;2260110;61;1067;-85
2022/05/10 06:06:09;46710.00;0.16;81.50;0.00;0.00;0.62;;;;;29.50;1.00;;;;;;2259414;61;2006;-85
2022/05/10 06:08:36;0.00;0.00;0.62;0.00;0.00;0.62;;;;;30.10;1.00;;;;;;2260101;61;1117;-85
2022/05/10 06:11:04;0.00;0.00;0.62;0.00;0.00;0.62;;;;;29.60;1.00;;;;;;2260334;61;1392;-87
2022/05/10 06:13:31;663002.00;2.21;1143.14;0.00;0.00;0.62;;;;;29.70;1.00;;;;;;2260304;61;1101;-86
2022/05/10 06:15:58;192405.00;0.64;332.85;74678.00;0.25;129.84;;;;;29.80;1.00;;;;;;2259059;61;1109;-85
2022/05/10 06:18:25;339648.00;1.13;586.07;70881.00;0.24;123.28;;;;;29.90;1.00;;;;;;2259617;61;1128;-84
2022/05/10 06:20:52;283686.00;0.95;489.87;79963.00;0.27;138.97;;;;;29.10;1.00;;;;;;2260285;61;1405;-87
2022/05/10 06:23:19;0.00;0.00;0.62;0.00;0.00;0.62;;;;;28.80;1.00;;;;;;2260304;61;1069;-86
2022/05/10 06:25:46;0.00;0.00;0.62;0.00;0.00;0.62;;;;;28.90;1.00;;;;;;2260315;61;2009;-87
2022/05/10 06:28:15;988284.00;3.29;1711.73;122651.00;0.41;212.66;;;;;29.20;1.00;;;;;;2260207;61;1389;-87
2022/05/10 06:30:43;287830.00;0.96;497.00;0.00;0.00;0.62;;;;;29.40;1.00;;;;;;2260055;61;1664;-86
2022/05/10 06:33:11;36376.00;0.12;63.62;0.00;0.00;0.62;;;;;28.80;1.00;;;;;;2260258;61;1702;-84
2022/05/10 06:35:39;0.00;0.00;0.62;0.00;0.00;0.62;;;;;28.40;1.00;;;;;;2259099;61;1254;-84
2022/05/10 06:38:24;12698.00;0.04;22.62;0.00;0.00;0.62;;;;;28.80;1.00;;;;;;2259209;61;2024;-83
2022/05/10 06:40:51;17752.00;0.06;31.38;0.00;0.00;0.62;;;;;28.60;1.00;;;;;;2259501;61;1334;-84
2022/05/10 06:43:19;107257.00;0.36;186.10;15735.00;0.05;27.88;;;;;28.80;1.00;;;;;;2259560;61;1231;-84
2022/05/10 06:45:47;577449.00;1.92;995.30;0.00;0.00;0.62;;;;;29.20;1.00;;;;;;2259118;61;2277;-84
2022/05/10 06:48:15;0.00;0.00;0.62;0.00;0.00;0.62;;;;;29.10;1.00;;;;;;2258937;61;1092;-84
2022/05/10 06:50:43;57551.00;0.19;100.24;0.00;0.00;0.62;;;;;29.40;1.00;;;;;;2259226;61;1352;-84
2022/05/10 06:53:12;397776.00;1.33;685.98;0.00;0.00;0.62;;;;;29.40;1.00;;;;;;2259486;61;1149;-85
2022/05/10 06:55:39;53054.00;0.18;92.47;0.00;0.00;0.62;;;;;29.80;1.00;;;;;;2259383;61;1132;-84
2022/05/10 06:58:06;188916.00;0.63;326.84;33632.00;0.11;58.87;;;;;30.10;1.00;;;;;;2259250;61;1588;-85
2022/05/10 07:00:38;81604.00;0.27;141.81;0.00;0.00;0.62;;;;;30.60;1.00;;;;;;2260259;61;1144;-84
2022/05/10 07:03:07;772914.00;2.58;1333.93;82633.00;0.28;143.59;;;;;30.00;1.00;;;;;;2259667;61;1444;-84
2022/05/10 07:05:35;291266.00;0.97;502.91;76362.00;0.25;132.75;;;;;29.70;1.00;;;;;;2260028;61;1092;-84
2022/05/10 07:08:02;16318.00;0.05;28.89;0.00;0.00;0.62;;;;;29.10;1.00;;;;;;2260528;61;1928;-87
2022/05/10 07:10:28;161335.00;0.54;279.34;0.00;0.00;0.62;;;;;29.60;1.00;;;;;;2259136;61;1590;-82
2022/05/10 07:12:58;249931.00;0.83;431.83;45499.00;0.15;79.40;;;;;30.80;1.00;;;;;;2260156;61;1370;-82
2022/05/10 07:15:25;465478.00;1.55;802.41;38481.00;0.13;67.26;;;;;31.50;1.00;;;;;;2259918;61;2128;-82
2022/05/10 07:17:53;0.00;0.00;0.62;0.00;0.00;0.62;;;;;32.10;1.00;;;;;;2259800;61;1183;-83
2022/05/10 07:20:21;0.00;0.00;0.62;0.00;0.00;0.62;;;;;32.50;1.00;;;;;;2260085;61;1127;-84
2022/05/10 07:22:48;416182.00;1.39;717.63;0.00;0.00;0.62;;;;;32.50;1.00;;;;;;2260111;61;1352;-84
2022/05/10 07:25:17;331273.00;1.10;571.67;0.00;0.00;0.62;;;;;32.90;1.00;;;;;;2259533;61;1229;-84
2022/05/10 07:27:44;116015.00;0.39;201.21;8608.00;0.03;15.54;;;;;33.10;1.00;;;;;;2260235;61;2005;-83
2022/05/10 07:30:13;207565.00;0.69;358.94;26137.00;0.09;45.90;;;;;32.20;1.00;;;;;;2260397;61;1065;-84
2022/05/10 07:32:41;537277.00;1.79;926.03;0.00;0.00;0.62;;;;;31.90;1.00;;;;;;2260421;61;2107;-83
2022/05/10 07:35:10;268055.00;0.89;463.00;7853.00;0.03;14.23;;;;;32.20;1.00;;;;;;2260362;61;1105;-83
2022/05/10 07:37:38;71720.00;0.24;124.73;0.00;0.00;0.62;;;;;32.20;1.00;;;;;;2259768;61;1112;-82
2022/05/10 07:40:06;0.00;0.00;0.62;0.00;0.00;0.62;;;;;32.60;1.00;;;;;;2259867;61;1084;-85
2022/05/10 07:42:33;348238.00;1.16;600.83;0.00;0.00;0.62;;;;;32.60;1.00;;;;;;2259651;61;1384;-82
2022/05/10 07:45:00;716077.00;2.39;1235.13;0.00;0.00;0.62;;;;;32.10;1.00;;;;;;2259157;61;1063;-82
2022/05/10 07:47:27;49799.00;0.17;86.84;0.00;0.00;0.62;;;;;31.50;1.00;;;;;;2259491;61;2002;-82
2022/05/10 07:49:54;38601.00;0.13;67.47;0.00;0.00;0.62;;;;;31.60;1.00;;;;;;2259827;61;1151;-82
2022/05/10 07:52:22;413780.00;1.38;713.50;23304.00;0.08;40.99;;;;;31.90;1.00;;;;;;2259792;61;1381;-82
2022/05/10 07:54:49;701842.00;2.34;1210.43;118807.00;0.40;206.02;;;;;32.60;1.00;;;;;;2259628;61;1123;-83
2022/05/10 07:57:16;381012.00;1.27;657.16;74067.00;0.25;128.79;;;;;32.30;1.00;;;;;;2259754;61;1187;-84
2022/05/10 07:59:43;347264.00;1.16;599.16;75943.00;0.25;132.03;;;;;32.60;1.00;;;;;;2259086;61;1189;-84
2022/05/10 08:02:11;32005.00;0.11;56.05;0.00;0.00;0.62;;;;;32.90;1.00;;;;;;2259962;61;1367;-84
2022/05/10 08:04:37;63373.00;0.21;110.31;0.00;0.00;0.62;;;;;32.70;1.00;;;;;;2260601;61;1129;-86
2022/05/10 08:07:04;0.00;0.00;0.62;0.00;0.00;0.62;;;;;32.50;1.00;;;;;;2260277;61;1926;-87
2022/05/10 08:09:33;112755.00;0.38;195.58;0.00;0.00;0.62;;;;;33.30;1.00;;;;;;2260404;61;1928;-85
2022/05/10 08:12:00;17246.00;0.06;30.50;0.00;0.00;0.62;;;;;32.60;1.00;;;;;;2260365;61;1420;-83
2022/05/10 08:14:27;217662.00;0.73;376.32;0.00;0.00;0.62;;;;;33.10;1.00;;;;;;2260284;61;1156;-85
2022/05/10 08:16:54;564297.00;1.88;972.61;15919.00;0.05;28.20;;;;;33.90;1.00;;;;;;2260525;61;1112;-87
2022/05/10 08:19:21;237272.00;0.79;410.06;76979.00;0.26;133.82;;;;;33.50;1.00;;;;;;2260329;61;1471;-86
2022/05/10 08:21:48;0.00;0.00;0.62;0.00;0.00;0.62;;;;;33.30;1.00;;;;;;2260513;61;2701;-85
2022/05/10 08:24:15;30349.00;0.10;53.19;0.00;0.00;0.62;;;;;32.90;1.00;;;;;;2260465;61;1117;-84
2022/05/10 08:26:43;51615.00;0.17;89.98;0.00;0.00;0.62;;;;;33.30;1.00;;;;;;2259834;61;2001;-85
2022/05/10 08:29:10;55755.00;0.19;97.14;0.00;0.00;0.62;;;;;32.90;1.00;;;;;;2260382;61;1155;-86
2022/05/10 08:31:38;787533.00;2.63;1359.39;38980.00;0.13;68.12;;;;;33.10;1.00;;;;;;2260202;61;1408;-86
2022/05/10 08:34:05;449485.00;1.50;774.90;116495.00;0.39;202.04;;;;;33.60;1.00;;;;;;2260140;61;1994;-82
2022/05/10 08:36:32;115015.00;0.38;199.48;0.00;0.00;0.62;;;;;34.30;1.00;;;;;;2259707;61;1513;-83
2022/05/10 08:38:59;0.00;0.00;0.62;0.00;0.00;0.62;;;;;33.50;1.00;;;;;;2259963;61;1069;-82
2022/05/10 08:41:31;578850.00;1.93;997.71;42055.00;0.14;73.44;;;;;33.00;1.00;;;;;;2260151;61;2061;-80
2022/05/10 08:44:07;122178072.00;407.26;73884920.00;46271.00;0.15;80.74;;;;;33.00;1.00;;;;;;2260250;61;1192;-84
2022/05/10 08:46:41;605632.00;2.02;1043.95;72197.00;0.24;125.56;;;;;32.90;1.00;;;;;;2260408;61;1924;-84
2022/05/10 08:49:14;242314.00;0.81;418.73;75561.00;0.25;131.37;;;;;32.90;1.00;;;;;;2260490;61;1104;-85
2022/05/10 08:51:41;25399.00;0.08;44.62;0.00;0.00;0.62;;;;;32.40;1.00;;;;;;2260544;61;1305;-84
2022/05/10 08:54:09;73408.00;0.24;127.65;0.00;0.00;0.62;;;;;32.80;1.00;;;;;;2260511;61;1565;-83
2022/05/10 08:56:44;163318.00;0.54;282.76;0.00;0.00;0.62;;;;;32.70;1.00;;;;;;2260452;61;1125;-83
2022/05/10 08:59:22;268264.00;0.89;463.36;0.00;0.00;0.62;;;;;32.50;1.00;;;;;;2260487;61;2295;-86
2022/05/10 09:02:00;1227156.00;4.09;2139.40;52182.00;0.17;90.96;;;;;32.90;1.00;;;;;;2260628;61;1480;-86
2022/05/10 09:04:52;584317.00;1.95;1007.15;135903.00;0.45;235.51;;;;;32.30;1.00;;;;;;2260603;61;1144;-89
2022/05/10 09:07:35;562424.00;1.87;969.38;46471.00;0.15;81.08;;;;;32.50;1.00;;;;;;2260537;61;1989;-87
2022/05/10 09:10:06;372152.00;1.24;641.94;39791.00;0.13;69.53;;;;;32.10;1.00;;;;;;2260441;61;1851;-88
2022/05/10 09:12:43;418898.00;1.40;722.30;38238.00;0.13;66.84;;;;;32.10;1.00;;;;;;2260506;61;1329;-87
2022/05/10 09:15:14;386979.00;1.29;667.42;88319.00;0.29;153.40;;;;;32.10;1.00;;;;;;2260362;61;1122;-90
2022/05/10 09:17:41;0.00;0.00;0.62;0.00;0.00;0.62;;;;;31.10;1.00;;;;;;2260423;61;1060;-89
2022/05/10 09:20:11;492492.00;1.64;848.90;138597.00;0.46;240.15;;;;;31.00;1.00;;;;;;2260433;61;1124;-87
2022/05/10 09:23:03;20721.00;0.07;36.52;0.00;0.00;0.62;;;;;30.50;1.00;;;;;;2260235;61;1393;-87
2022/05/10 09:25:34;142439920.00;474.80;117130264.00;0.00;0.00;0.62;;;;;30.30;1.00;;;;;;2260457;61;1543;-88
2022/05/10 09:28:08;14227.00;0.05;25.27;0.00;0.00;0.62;;;;;30.10;1.00;;;;;;2260328;61;1981;-85
2022/05/10 09:30:36;12704.00;0.04;22.63;0.00;0.00;0.62;;;;;30.00;1.00;;;;;;2260379;61;2060;-84
2022/05/10 09:36:04;35737.00;0.12;62.51;0.00;0.00;0.62;;;;;30.10;1.00;;;;;;2260298;61;655;-86
2022/05/10 09:38:32;306459.00;1.02;529.02;60652.00;0.20;105.60;;;;;30.30;1.00;;;;;;2260259;61;1010;-83
2022/05/10 09:40:59;84976.00;0.28;147.63;0.00;0.00;0.62;;;;;30.10;1.00;;;;;;2260359;61;1376;-86
2022/05/10 09:43:28;539086.00;1.80;929.15;45335.00;0.15;79.12;;;;;30.30;1.00;;;;;;2260438;61;1097;-89
2022/05/10 09:46:09;973514.00;3.25;1685.62;146008.00;0.49;252.93;;;;;30.10;1.00;;;;;;2260434;61;1744;-87
2022/05/10 09:48:37;1099706.00;3.67;1909.90;119056.00;0.40;206.45;;;;;29.70;1.00;;;;;;2260461;61;1940;-88
2022/05/10 09:51:24;874844.00;2.92;1511.98;81133.00;0.27;140.99;;;;;29.90;1.00;;;;;;2260249;61;1393;-89
2022/05/10 09:53:53;486252.00;1.62;838.16;81315.00;0.27;141.31;;;;;30.10;1.00;;;;;;2260353;61;1114;-89
2022/05/10 09:56:33;169674.00;0.57;293.71;61014.00;0.20;106.23;;;;;30.50;1.00;;;;;;2260375;61;1136;-88
2022/05/10 09:59:02;50325.00;0.17;87.75;0.00;0.00;0.62;;;;;30.50;1.00;;;;;;2260211;61;1052;-89
2022/05/10 10:01:49;85478.00;0.28;148.50;0.00;0.00;0.62;;;;;30.60;1.00;;;;;;2260248;61;1729;-87
2022/05/10 10:04:23;59028.00;0.20;102.80;0.00;0.00;0.62;;;;;30.60;1.00;;;;;;2260297;61;1030;-84
2022/05/10 10:07:08;144956.00;0.48;251.11;0.00;0.00;0.62;;;;;30.60;1.00;;;;;;2260299;61;1919;-88
2022/05/10 10:09:38;739111.00;2.46;1275.13;26506.00;0.09;46.53;;;;;30.20;1.00;;;;;;2260261;61;1104;-90